sensor_id;sensor_type;location;lat;lon;timestamp;temperature;humidity
76333;DHT22;71254;53.010;6.508;2023-11-22T00:01:15;4.30;99.90
76333;DHT22;71254;53.010;6.508;2023-11-22T00:03:41;4.20;99.90
76333;DHT22;71254;53.010;6.508;2023-11-22T00:06:07;4.20;99.90
76333;DHT22;71254;53.010;6.508;2023-11-22T00:08:32;4.10;99.90
76333;DHT22;71254;53.010;6.508;2023-11-22T00:10:58;4.10;99.90
76333;DHT22;71254;53.010;6.508;2023-11-22T00:13:33;4.10;99.90
76333;DHT22;71254;53.010;6.508;2023-11-22T00:15:59;4.10;99.90
76333;DHT22;71254;53.010;6.508;2023-11-22T00:18:33;4.10;99.90
76333;DHT22;71254;53.010;6.508;2023-11-22T00:20:58;4.10;99.90
76333;DHT22;71254;53.010;6.508;2023-11-22T00:23:25;4.20;99.90
76333;DHT22;71254;53.010;6.508;2023-11-22T00:25:54;4.20;99.90
76333;DHT22;71254;53.010;6.508;2023-11-22T00:28:20;4.20;99.90
76333;DHT22;71254;53.010;6.508;2023-11-22T00:30:45;4.10;99.90
76333;DHT22;71254;53.010;6.508;2023-11-22T00:33:11;4.10;99.90
76333;DHT22;71254;53.010;6.508;2023-11-22T00:35:36;4.10;99.90
76333;DHT22;71254;53.010;6.508;2023-11-22T00:38:02;4.10;99.90
76333;DHT22;71254;53.010;6.508;2023-11-22T00:40:28;4.00;99.90
76333;DHT22;71254;53.010;6.508;2023-11-22T00:42:53;4.00;99.90
76333;DHT22;71254;53.010;6.508;2023-11-22T00:45:22;4.00;99.90
76333;DHT22;71254;53.010;6.508;2023-11-22T00:47:47;3.90;99.90
76333;DHT22;71254;53.010;6.508;2023-11-22T00:50:16;3.90;99.90
76333;DHT22;71254;53.010;6.508;2023-11-22T00:52:48;3.80;99.90
76333;DHT22;71254;53.010;6.508;2023-11-22T00:55:14;3.70;99.90
76333;DHT22;71254;53.010;6.508;2023-11-22T00:57:40;3.70;99.90
76333;DHT22;71254;53.010;6.508;2023-11-22T01:00:06;3.60;99.90
76333;DHT22;71254;53.010;6.508;2023-11-22T01:02:35;3.60;99.90
76333;DHT22;71254;53.010;6.508;2023-11-22T01:05:05;3.50;99.90
76333;DHT22;71254;53.010;6.508;2023-11-22T01:07:34;3.50;99.90
76333;DHT22;71254;53.010;6.508;2023-11-22T01:10:00;3.40;99.90
76333;DHT22;71254;53.010;6.508;2023-11-22T01:12:26;3.40;99.90
76333;DHT22;71254;53.010;6.508;2023-11-22T01:14:52;3.40;99.90
76333;DHT22;71254;53.010;6.508;2023-11-22T01:17:20;3.30;99.90
76333;DHT22;71254;53.010;6.508;2023-11-22T01:19:46;3.30;99.90
76333;DHT22;71254;53.010;6.508;2023-11-22T01:22:11;3.20;99.90
76333;DHT22;71254;53.010;6.508;2023-11-22T01:24:37;3.20;99.90
76333;DHT22;71254;53.010;6.508;2023-11-22T01:27:03;3.10;99.90
76333;DHT22;71254;53.010;6.508;2023-11-22T01:29:30;3.10;99.90
76333;DHT22;71254;53.010;6.508;2023-11-22T01:31:56;3.10;99.90
76333;DHT22;71254;53.010;6.508;2023-11-22T01:34:21;3.10;99.90
76333;DHT22;71254;53.010;6.508;2023-11-22T01:36:50;3.00;99.90
76333;DHT22;71254;53.010;6.508;2023-11-22T01:39:18;3.00;99.90
76333;DHT22;71254;53.010;6.508;2023-11-22T01:41:44;3.00;99.90
76333;DHT22;71254;53.010;6.508;2023-11-22T01:44:10;2.90;99.90
76333;DHT22;71254;53.010;6.508;2023-11-22T01:46:39;2.90;99.90
76333;DHT22;71254;53.010;6.508;2023-11-22T01:49:04;2.80;99.90
76333;DHT22;71254;53.010;6.508;2023-11-22T01:51:30;2.80;99.90
76333;DHT22;71254;53.010;6.508;2023-11-22T01:53:57;2.80;99.90
76333;DHT22;71254;53.010;6.508;2023-11-22T01:56:25;2.70;99.90
76333;DHT22;71254;53.010;6.508;2023-11-22T01:58:52;2.70;99.90
76333;DHT22;71254;53.010;6.508;2023-11-22T02:01:20;2.70;99.90
76333;DHT22;71254;53.010;6.508;2023-11-22T02:03:48;2.70;99.90
76333;DHT22;71254;53.010;6.508;2023-11-22T02:06:16;2.70;99.90
76333;DHT22;71254;53.010;6.508;2023-11-22T02:08:42;2.60;99.90
76333;DHT22;71254;53.010;6.508;2023-11-22T02:11:08;2.60;99.90
76333;DHT22;71254;53.010;6.508;2023-11-22T02:13:34;2.60;99.90
76333;DHT22;71254;53.010;6.508;2023-11-22T02:16:01;2.60;99.90
76333;DHT22;71254;53.010;6.508;2023-11-22T02:18:28;2.50;99.90
76333;DHT22;71254;53.010;6.508;2023-11-22T02:20:53;2.50;99.90
76333;DHT22;71254;53.010;6.508;2023-11-22T02:23:19;2.50;99.90
76333;DHT22;71254;53.010;6.508;2023-11-22T02:25:45;2.40;99.90
76333;DHT22;71254;53.010;6.508;2023-11-22T02:28:13;2.40;99.90
76333;DHT22;71254;53.010;6.508;2023-11-22T02:30:39;2.30;99.90
76333;DHT22;71254;53.010;6.508;2023-11-22T02:33:05;2.30;99.90
76333;DHT22;71254;53.010;6.508;2023-11-22T02:35:31;2.30;99.90
76333;DHT22;71254;53.010;6.508;2023-11-22T02:37:58;2.20;99.90
76333;DHT22;71254;53.010;6.508;2023-11-22T02:40:25;2.20;99.90
76333;DHT22;71254;53.010;6.508;2023-11-22T02:42:52;2.20;99.90
76333;DHT22;71254;53.010;6.508;2023-11-22T02:45:20;2.20;99.90
76333;DHT22;71254;53.010;6.508;2023-11-22T02:47:48;2.20;99.90
76333;DHT22;71254;53.010;6.508;2023-11-22T02:50:15;2.10;99.90
76333;DHT22;71254;53.010;6.508;2023-11-22T02:52:41;2.00;99.90
76333;DHT22;71254;53.010;6.508;2023-11-22T02:55:08;1.90;99.90
76333;DHT22;71254;53.010;6.508;2023-11-22T02:57:37;1.90;99.90
76333;DHT22;71254;53.010;6.508;2023-11-22T03:00:05;1.90;99.90
76333;DHT22;71254;53.010;6.508;2023-11-22T03:02:32;1.90;99.90
76333;DHT22;71254;53.010;6.508;2023-11-22T03:04:58;1.90;99.90
76333;DHT22;71254;53.010;6.508;2023-11-22T03:07:26;1.90;99.90
76333;DHT22;71254;53.010;6.508;2023-11-22T03:09:53;1.80;99.90
76333;DHT22;71254;53.010;6.508;2023-11-22T03:12:19;1.80;99.90
76333;DHT22;71254;53.010;6.508;2023-11-22T03:14:48;1.90;99.90
76333;DHT22;71254;53.010;6.508;2023-11-22T03:17:17;1.90;99.90
76333;DHT22;71254;53.010;6.508;2023-11-22T03:19:43;1.90;99.90
76333;DHT22;71254;53.010;6.508;2023-11-22T03:22:10;1.80;99.90
76333;DHT22;71254;53.010;6.508;2023-11-22T03:24:36;1.80;99.90
76333;DHT22;71254;53.010;6.508;2023-11-22T03:27:03;1.80;99.90
76333;DHT22;71254;53.010;6.508;2023-11-22T03:29:32;1.70;99.90
76333;DHT22;71254;53.010;6.508;2023-11-22T03:31:59;1.70;99.90
76333;DHT22;71254;53.010;6.508;2023-11-22T03:34:24;1.60;99.90
76333;DHT22;71254;53.010;6.508;2023-11-22T03:36:52;1.50;99.90
76333;DHT22;71254;53.010;6.508;2023-11-22T03:39:18;1.40;99.90
76333;DHT22;71254;53.010;6.508;2023-11-22T03:41:44;1.40;99.90
76333;DHT22;71254;53.010;6.508;2023-11-22T03:44:10;1.40;99.90
76333;DHT22;71254;53.010;6.508;2023-11-22T03:46:36;1.40;99.90
76333;DHT22;71254;53.010;6.508;2023-11-22T03:49:03;1.40;99.90
76333;DHT22;71254;53.010;6.508;2023-11-22T03:51:29;1.50;99.90
76333;DHT22;71254;53.010;6.508;2023-11-22T03:53:59;1.50;99.90
76333;DHT22;71254;53.010;6.508;2023-11-22T03:56:25;1.50;99.90
76333;DHT22;71254;53.010;6.508;2023-11-22T03:58:51;1.50;99.90
76333;DHT22;71254;53.010;6.508;2023-11-22T04:01:16;1.40;99.90
76333;DHT22;71254;53.010;6.508;2023-11-22T04:03:44;1.40;99.90
76333;DHT22;71254;53.010;6.508;2023-11-22T04:06:09;1.40;99.90
76333;DHT22;71254;53.010;6.508;2023-11-22T04:08:35;1.40;99.90
76333;DHT22;71254;53.010;6.508;2023-11-22T04:11:01;1.40;99.90
76333;DHT22;71254;53.010;6.508;2023-11-22T04:13:27;1.40;99.90
76333;DHT22;71254;53.010;6.508;2023-11-22T04:15:53;1.30;99.90
76333;DHT22;71254;53.010;6.508;2023-11-22T04:18:18;1.30;99.90
76333;DHT22;71254;53.010;6.508;2023-11-22T04:20:44;1.20;99.90
76333;DHT22;71254;53.010;6.508;2023-11-22T04:23:13;1.20;99.90
76333;DHT22;71254;53.010;6.508;2023-11-22T04:25:41;1.20;99.90
76333;DHT22;71254;53.010;6.508;2023-11-22T04:28:07;1.10;99.90
76333;DHT22;71254;53.010;6.508;2023-11-22T04:30:34;1.10;99.90
76333;DHT22;71254;53.010;6.508;2023-11-22T04:32:59;1.10;99.90
76333;DHT22;71254;53.010;6.508;2023-11-22T04:35:28;1.10;99.90
76333;DHT22;71254;53.010;6.508;2023-11-22T04:37:53;1.00;99.90
76333;DHT22;71254;53.010;6.508;2023-11-22T04:40:23;1.10;99.90
76333;DHT22;71254;53.010;6.508;2023-11-22T04:42:49;1.00;99.90
76333;DHT22;71254;53.010;6.508;2023-11-22T04:45:15;1.00;99.90
76333;DHT22;71254;53.010;6.508;2023-11-22T04:47:42;0.90;99.90
76333;DHT22;71254;53.010;6.508;2023-11-22T04:50:08;0.90;99.90
76333;DHT22;71254;53.010;6.508;2023-11-22T04:52:38;0.80;99.90
76333;DHT22;71254;53.010;6.508;2023-11-22T04:55:05;0.80;99.90
76333;DHT22;71254;53.010;6.508;2023-11-22T04:57:31;0.80;99.90
76333;DHT22;71254;53.010;6.508;2023-11-22T04:59:56;0.90;99.90
76333;DHT22;71254;53.010;6.508;2023-11-22T05:02:22;0.90;99.90
76333;DHT22;71254;53.010;6.508;2023-11-22T05:04:54;0.90;99.90
76333;DHT22;71254;53.010;6.508;2023-11-22T05:07:20;0.90;99.90
76333;DHT22;71254;53.010;6.508;2023-11-22T05:09:53;0.90;99.90
76333;DHT22;71254;53.010;6.508;2023-11-22T05:12:27;0.90;99.90
76333;DHT22;71254;53.010;6.508;2023-11-22T05:14:53;1.00;99.90
76333;DHT22;71254;53.010;6.508;2023-11-22T05:17:21;1.00;99.90
76333;DHT22;71254;53.010;6.508;2023-11-22T05:19:47;1.00;99.90
76333;DHT22;71254;53.010;6.508;2023-11-22T05:22:12;1.00;99.90
76333;DHT22;71254;53.010;6.508;2023-11-22T05:24:38;1.10;99.90
76333;DHT22;71254;53.010;6.508;2023-11-22T05:27:09;1.10;99.90
76333;DHT22;71254;53.010;6.508;2023-11-22T05:29:35;1.10;99.90
76333;DHT22;71254;53.010;6.508;2023-11-22T05:32:02;1.10;99.90
76333;DHT22;71254;53.010;6.508;2023-11-22T05:34:34;1.10;99.90
76333;DHT22;71254;53.010;6.508;2023-11-22T05:36:59;1.10;99.90
76333;DHT22;71254;53.010;6.508;2023-11-22T05:39:25;1.10;99.90
76333;DHT22;71254;53.010;6.508;2023-11-22T05:41:54;1.20;99.90
76333;DHT22;71254;53.010;6.508;2023-11-22T05:44:19;1.10;99.90
76333;DHT22;71254;53.010;6.508;2023-11-22T05:46:54;1.20;99.90
76333;DHT22;71254;53.010;6.508;2023-11-22T05:49:20;1.20;99.90
76333;DHT22;71254;53.010;6.508;2023-11-22T05:51:45;1.20;99.90
76333;DHT22;71254;53.010;6.508;2023-11-22T05:54:11;1.20;99.90
76333;DHT22;71254;53.010;6.508;2023-11-22T05:56:38;1.20;99.90
76333;DHT22;71254;53.010;6.508;2023-11-22T05:59:03;1.20;99.90
76333;DHT22;71254;53.010;6.508;2023-11-22T06:01:29;1.30;99.90
76333;DHT22;71254;53.010;6.508;2023-11-22T06:03:56;1.30;99.90
76333;DHT22;71254;53.010;6.508;2023-11-22T06:06:22;1.30;99.90
76333;DHT22;71254;53.010;6.508;2023-11-22T06:08:48;1.30;99.90
76333;DHT22;71254;53.010;6.508;2023-11-22T06:11:14;1.30;99.90
76333;DHT22;71254;53.010;6.508;2023-11-22T06:13:43;1.30;99.90
76333;DHT22;71254;53.010;6.508;2023-11-22T06:16:09;1.40;99.90
76333;DHT22;71254;53.010;6.508;2023-11-22T06:18:35;1.40;99.90
76333;DHT22;71254;53.010;6.508;2023-11-22T06:21:06;1.40;99.90
76333;DHT22;71254;53.010;6.508;2023-11-22T06:23:32;1.40;99.90
76333;DHT22;71254;53.010;6.508;2023-11-22T06:25:58;1.40;99.90
76333;DHT22;71254;53.010;6.508;2023-11-22T06:28:25;1.40;99.90
76333;DHT22;71254;53.010;6.508;2023-11-22T06:30:52;1.40;99.90
76333;DHT22;71254;53.010;6.508;2023-11-22T06:33:18;1.40;99.90
76333;DHT22;71254;53.010;6.508;2023-11-22T06:35:44;1.40;99.90
76333;DHT22;71254;53.010;6.508;2023-11-22T06:38:09;1.30;99.90
76333;DHT22;71254;53.010;6.508;2023-11-22T06:40:35;1.30;99.90
76333;DHT22;71254;53.010;6.508;2023-11-22T06:43:01;1.30;99.90
76333;DHT22;71254;53.010;6.508;2023-11-22T06:45:29;1.30;99.90
76333;DHT22;71254;53.010;6.508;2023-11-22T06:47:56;1.30;99.90
76333;DHT22;71254;53.010;6.508;2023-11-22T06:50:22;1.20;99.90
76333;DHT22;71254;53.010;6.508;2023-11-22T06:52:47;1.20;99.90
76333;DHT22;71254;53.010;6.508;2023-11-22T06:55:18;1.20;99.90
76333;DHT22;71254;53.010;6.508;2023-11-22T06:57:44;1.30;99.90
76333;DHT22;71254;53.010;6.508;2023-11-22T07:00:11;1.20;99.90
76333;DHT22;71254;53.010;6.508;2023-11-22T07:02:38;1.30;99.90
76333;DHT22;71254;53.010;6.508;2023-11-22T07:05:04;1.30;99.90
76333;DHT22;71254;53.010;6.508;2023-11-22T07:07:36;1.30;99.90
76333;DHT22;71254;53.010;6.508;2023-11-22T07:10:03;1.40;99.90
76333;DHT22;71254;53.010;6.508;2023-11-22T07:12:31;1.40;99.90
76333;DHT22;71254;53.010;6.508;2023-11-22T07:14:57;1.40;99.90
76333;DHT22;71254;53.010;6.508;2023-11-22T07:17:22;1.40;99.90
76333;DHT22;71254;53.010;6.508;2023-11-22T07:19:53;1.50;99.90
76333;DHT22;71254;53.010;6.508;2023-11-22T07:22:20;1.50;99.90
76333;DHT22;71254;53.010;6.508;2023-11-22T07:24:48;1.60;99.90
76333;DHT22;71254;53.010;6.508;2023-11-22T07:27:17;1.60;99.90
76333;DHT22;71254;53.010;6.508;2023-11-22T07:29:44;1.60;99.90
76333;DHT22;71254;53.010;6.508;2023-11-22T07:32:13;1.70;99.90
76333;DHT22;71254;53.010;6.508;2023-11-22T07:34:39;1.70;99.90
76333;DHT22;71254;53.010;6.508;2023-11-22T07:37:07;1.80;99.90
76333;DHT22;71254;53.010;6.508;2023-11-22T07:39:33;1.80;99.90
76333;DHT22;71254;53.010;6.508;2023-11-22T07:42:01;1.80;99.90
76333;DHT22;71254;53.010;6.508;2023-11-22T07:44:29;1.90;99.90
76333;DHT22;71254;53.010;6.508;2023-11-22T07:46:58;1.90;99.90
76333;DHT22;71254;53.010;6.508;2023-11-22T07:49:24;1.90;99.90
76333;DHT22;71254;53.010;6.508;2023-11-22T07:51:50;2.00;99.90
76333;DHT22;71254;53.010;6.508;2023-11-22T07:54:19;2.00;99.90
76333;DHT22;71254;53.010;6.508;2023-11-22T07:56:50;2.10;99.90
76333;DHT22;71254;53.010;6.508;2023-11-22T07:59:17;2.10;99.90
76333;DHT22;71254;53.010;6.508;2023-11-22T08:01:43;2.10;99.90
76333;DHT22;71254;53.010;6.508;2023-11-22T08:04:15;2.20;99.90
76333;DHT22;71254;53.010;6.508;2023-11-22T08:06:42;2.20;99.90
76333;DHT22;71254;53.010;6.508;2023-11-22T08:09:08;2.20;99.90
76333;DHT22;71254;53.010;6.508;2023-11-22T08:11:35;2.20;99.90
76333;DHT22;71254;53.010;6.508;2023-11-22T08:14:01;2.30;99.90
76333;DHT22;71254;53.010;6.508;2023-11-22T08:16:27;2.30;99.90
76333;DHT22;71254;53.010;6.508;2023-11-22T08:18:53;2.40;99.90
76333;DHT22;71254;53.010;6.508;2023-11-22T08:21:18;2.40;99.90
76333;DHT22;71254;53.010;6.508;2023-11-22T08:23:46;2.40;99.90
76333;DHT22;71254;53.010;6.508;2023-11-22T08:26:12;2.50;99.90
76333;DHT22;71254;53.010;6.508;2023-11-22T08:28:39;2.50;99.90
76333;DHT22;71254;53.010;6.508;2023-11-22T08:31:05;2.50;99.90
76333;DHT22;71254;53.010;6.508;2023-11-22T08:33:35;2.60;99.90
76333;DHT22;71254;53.010;6.508;2023-11-22T08:36:01;2.60;99.90
76333;DHT22;71254;53.010;6.508;2023-11-22T08:38:28;2.60;99.90
76333;DHT22;71254;53.010;6.508;2023-11-22T08:40:53;2.70;99.90
76333;DHT22;71254;53.010;6.508;2023-11-22T08:43:20;2.70;99.90
76333;DHT22;71254;53.010;6.508;2023-11-22T08:45:49;2.70;99.90
76333;DHT22;71254;53.010;6.508;2023-11-22T08:48:20;2.80;99.90
76333;DHT22;71254;53.010;6.508;2023-11-22T08:50:46;2.80;99.90
76333;DHT22;71254;53.010;6.508;2023-11-22T08:53:16;2.80;99.90
76333;DHT22;71254;53.010;6.508;2023-11-22T08:55:47;2.90;99.90
76333;DHT22;71254;53.010;6.508;2023-11-22T08:58:13;3.00;99.90
76333;DHT22;71254;53.010;6.508;2023-11-22T09:00:39;3.00;99.90
76333;DHT22;71254;53.010;6.508;2023-11-22T09:03:07;3.00;99.90
76333;DHT22;71254;53.010;6.508;2023-11-22T09:05:42;3.10;99.90
76333;DHT22;71254;53.010;6.508;2023-11-22T09:08:09;3.10;99.90
76333;DHT22;71254;53.010;6.508;2023-11-22T09:10:40;3.20;99.90
76333;DHT22;71254;53.010;6.508;2023-11-22T09:13:07;3.20;99.90
76333;DHT22;71254;53.010;6.508;2023-11-22T09:15:33;3.30;99.90
76333;DHT22;71254;53.010;6.508;2023-11-22T09:18:02;3.30;99.90
76333;DHT22;71254;53.010;6.508;2023-11-22T09:20:27;3.30;99.90
76333;DHT22;71254;53.010;6.508;2023-11-22T09:22:55;3.40;99.90
76333;DHT22;71254;53.010;6.508;2023-11-22T09:25:23;3.40;99.90
76333;DHT22;71254;53.010;6.508;2023-11-22T09:27:56;3.40;99.90
76333;DHT22;71254;53.010;6.508;2023-11-22T09:30:27;3.40;99.90
76333;DHT22;71254;53.010;6.508;2023-11-22T09:33:10;3.40;99.90
76333;DHT22;71254;53.010;6.508;2023-11-22T09:35:39;3.40;99.90
76333;DHT22;71254;53.010;6.508;2023-11-22T09:38:08;3.50;99.90
76333;DHT22;71254;53.010;6.508;2023-11-22T09:40:47;3.50;99.90
76333;DHT22;71254;53.010;6.508;2023-11-22T09:43:14;3.50;99.90
76333;DHT22;71254;53.010;6.508;2023-11-22T09:45:49;3.60;99.90
76333;DHT22;71254;53.010;6.508;2023-11-22T09:48:19;3.60;99.90
76333;DHT22;71254;53.010;6.508;2023-11-22T09:54:06;3.70;99.90
76333;DHT22;71254;53.010;6.508;2023-11-22T09:56:33;3.80;99.90
76333;DHT22;71254;53.010;6.508;2023-11-22T09:59:00;3.80;99.90
76333;DHT22;71254;53.010;6.508;2023-11-22T10:01:29;3.90;99.90
76333;DHT22;71254;53.010;6.508;2023-11-22T10:03:59;4.00;99.90
76333;DHT22;71254;53.010;6.508;2023-11-22T10:06:37;4.10;99.90
76333;DHT22;71254;53.010;6.508;2023-11-22T10:09:04;4.20;99.90
76333;DHT22;71254;53.010;6.508;2023-11-22T10:11:34;4.20;99.90
76333;DHT22;71254;53.010;6.508;2023-11-22T10:14:02;4.30;99.90
76333;DHT22;71254;53.010;6.508;2023-11-22T10:16:27;4.30;99.90
76333;DHT22;71254;53.010;6.508;2023-11-22T10:18:53;4.40;99.90
76333;DHT22;71254;53.010;6.508;2023-11-22T10:21:26;4.40;99.90
76333;DHT22;71254;53.010;6.508;2023-11-22T10:23:56;4.50;99.90
76333;DHT22;71254;53.010;6.508;2023-11-22T10:26:23;4.60;99.90
76333;DHT22;71254;53.010;6.508;2023-11-22T10:28:53;4.60;99.90
76333;DHT22;71254;53.010;6.508;2023-11-22T10:31:19;4.60;99.90
76333;DHT22;71254;53.010;6.508;2023-11-22T10:33:47;4.70;99.90
76333;DHT22;71254;53.010;6.508;2023-11-22T10:36:13;4.70;99.90
76333;DHT22;71254;53.010;6.508;2023-11-22T10:38:40;4.80;99.90
76333;DHT22;71254;53.010;6.508;2023-11-22T10:41:10;4.80;99.90
76333;DHT22;71254;53.010;6.508;2023-11-22T10:43:37;4.90;99.90
76333;DHT22;71254;53.010;6.508;2023-11-22T10:46:03;5.00;99.90
76333;DHT22;71254;53.010;6.508;2023-11-22T10:48:35;5.10;99.90
76333;DHT22;71254;53.010;6.508;2023-11-22T10:51:03;5.20;99.90
76333;DHT22;71254;53.010;6.508;2023-11-22T10:53:48;5.30;99.90
76333;DHT22;71254;53.010;6.508;2023-11-22T10:56:15;5.40;99.90
76333;DHT22;71254;53.010;6.508;2023-11-22T10:58:47;5.40;99.90
76333;DHT22;71254;53.010;6.508;2023-11-22T11:01:18;5.40;99.90
76333;DHT22;71254;53.010;6.508;2023-11-22T11:04:09;5.40;99.90
76333;DHT22;71254;53.010;6.508;2023-11-22T11:06:37;5.40;99.90
76333;DHT22;71254;53.010;6.508;2023-11-22T11:09:06;5.30;99.90
76333;DHT22;71254;53.010;6.508;2023-11-22T11:11:35;5.20;99.90
76333;DHT22;71254;53.010;6.508;2023-11-22T11:14:03;5.20;99.90
76333;DHT22;71254;53.010;6.508;2023-11-22T11:16:31;5.20;99.90
76333;DHT22;71254;53.010;6.508;2023-11-22T11:19:00;5.30;99.90
76333;DHT22;71254;53.010;6.508;2023-11-22T11:21:26;5.30;99.90
76333;DHT22;71254;53.010;6.508;2023-11-22T11:23:52;5.30;99.90
76333;DHT22;71254;53.010;6.508;2023-11-22T11:26:20;5.40;99.90
76333;DHT22;71254;53.010;6.508;2023-11-22T11:28:51;5.40;99.90
76333;DHT22;71254;53.010;6.508;2023-11-22T11:31:20;5.50;99.90
76333;DHT22;71254;53.010;6.508;2023-11-22T11:36:29;5.50;99.90
76333;DHT22;71254;53.010;6.508;2023-11-22T11:38:58;5.50;99.90
76333;DHT22;71254;53.010;6.508;2023-11-22T11:41:32;5.60;99.90
76333;DHT22;71254;53.010;6.508;2023-11-22T11:44:03;5.70;99.90
76333;DHT22;71254;53.010;6.508;2023-11-22T11:46:30;5.70;99.90
76333;DHT22;71254;53.010;6.508;2023-11-22T11:48:56;5.80;99.90
76333;DHT22;71254;53.010;6.508;2023-11-22T11:51:24;5.90;99.90
76333;DHT22;71254;53.010;6.508;2023-11-22T11:53:50;5.90;99.90
76333;DHT22;71254;53.010;6.508;2023-11-22T11:56:17;5.90;99.90
76333;DHT22;71254;53.010;6.508;2023-11-22T11:58:47;5.90;99.90
76333;DHT22;71254;53.010;6.508;2023-11-22T12:01:37;5.90;99.90
76333;DHT22;71254;53.010;6.508;2023-11-22T12:04:02;5.90;99.90
76333;DHT22;71254;53.010;6.508;2023-11-22T12:06:29;5.90;99.90
76333;DHT22;71254;53.010;6.508;2023-11-22T12:08:56;6.00;99.90
76333;DHT22;71254;53.010;6.508;2023-11-22T12:11:23;6.00;99.90
76333;DHT22;71254;53.010;6.508;2023-11-22T12:13:49;6.00;99.90
76333;DHT22;71254;53.010;6.508;2023-11-22T12:16:26;6.00;99.90
76333;DHT22;71254;53.010;6.508;2023-11-22T12:18:52;6.00;99.90
76333;DHT22;71254;53.010;6.508;2023-11-22T12:21:18;5.90;99.90
76333;DHT22;71254;53.010;6.508;2023-11-22T12:23:46;5.90;99.90
76333;DHT22;71254;53.010;6.508;2023-11-22T12:26:13;5.80;99.90
76333;DHT22;71254;53.010;6.508;2023-11-22T12:28:46;5.80;99.90
76333;DHT22;71254;53.010;6.508;2023-11-22T12:31:13;5.80;99.90
76333;DHT22;71254;53.010;6.508;2023-11-22T12:33:40;5.80;99.90
76333;DHT22;71254;53.010;6.508;2023-11-22T12:36:07;5.70;99.90
76333;DHT22;71254;53.010;6.508;2023-11-22T12:38:40;5.70;99.90
76333;DHT22;71254;53.010;6.508;2023-11-22T12:41:06;5.60;99.90
76333;DHT22;71254;53.010;6.508;2023-11-22T12:43:33;5.60;99.90
76333;DHT22;71254;53.010;6.508;2023-11-22T12:46:03;5.60;99.90
76333;DHT22;71254;53.010;6.508;2023-11-22T12:48:29;5.60;99.90
76333;DHT22;71254;53.010;6.508;2023-11-22T12:50:56;5.60;99.90
76333;DHT22;71254;53.010;6.508;2023-11-22T12:53:22;5.50;99.90
76333;DHT22;71254;53.010;6.508;2023-11-22T12:55:51;5.50;99.90
76333;DHT22;71254;53.010;6.508;2023-11-22T12:58:24;5.60;99.90
76333;DHT22;71254;53.010;6.508;2023-11-22T13:00:54;5.50;99.90
76333;DHT22;71254;53.010;6.508;2023-11-22T13:03:24;5.60;99.90
76333;DHT22;71254;53.010;6.508;2023-11-22T13:05:51;5.50;99.90
76333;DHT22;71254;53.010;6.508;2023-11-22T13:08:20;5.60;99.90
76333;DHT22;71254;53.010;6.508;2023-11-22T13:10:49;5.50;99.90
76333;DHT22;71254;53.010;6.508;2023-11-22T13:13:22;5.50;99.90
76333;DHT22;71254;53.010;6.508;2023-11-22T13:15:49;5.50;99.90
76333;DHT22;71254;53.010;6.508;2023-11-22T13:18:18;5.50;99.90
76333;DHT22;71254;53.010;6.508;2023-11-22T13:20:46;5.50;99.90
76333;DHT22;71254;53.010;6.508;2023-11-22T13:23:13;5.50;99.90
76333;DHT22;71254;53.010;6.508;2023-11-22T13:25:41;5.50;99.90
76333;DHT22;71254;53.010;6.508;2023-11-22T13:28:07;5.50;99.90
76333;DHT22;71254;53.010;6.508;2023-11-22T13:30:34;5.50;99.90
76333;DHT22;71254;53.010;6.508;2023-11-22T13:33:03;5.50;99.90
76333;DHT22;71254;53.010;6.508;2023-11-22T13:35:29;5.50;99.90
76333;DHT22;71254;53.010;6.508;2023-11-22T13:38:06;5.50;99.90
76333;DHT22;71254;53.010;6.508;2023-11-22T13:40:38;5.50;99.90
76333;DHT22;71254;53.010;6.508;2023-11-22T13:43:11;5.50;99.90
76333;DHT22;71254;53.010;6.508;2023-11-22T13:45:38;5.50;99.90
76333;DHT22;71254;53.010;6.508;2023-11-22T13:48:06;5.40;99.90
76333;DHT22;71254;53.010;6.508;2023-11-22T13:50:35;5.40;99.90
76333;DHT22;71254;53.010;6.508;2023-11-22T13:53:01;5.40;99.90
76333;DHT22;71254;53.010;6.508;2023-11-22T13:55:32;5.40;99.90
76333;DHT22;71254;53.010;6.508;2023-11-22T13:57:59;5.40;99.90
76333;DHT22;71254;53.010;6.508;2023-11-22T14:00:27;5.30;99.90
76333;DHT22;71254;53.010;6.508;2023-11-22T14:02:57;5.40;99.90
76333;DHT22;71254;53.010;6.508;2023-11-22T14:05:30;5.30;99.90
76333;DHT22;71254;53.010;6.508;2023-11-22T14:07:56;5.30;99.90
76333;DHT22;71254;53.010;6.508;2023-11-22T14:10:28;5.30;99.90
76333;DHT22;71254;53.010;6.508;2023-11-22T14:13:00;5.20;99.90
76333;DHT22;71254;53.010;6.508;2023-11-22T14:15:27;5.20;99.90
76333;DHT22;71254;53.010;6.508;2023-11-22T14:17:56;5.20;99.90
76333;DHT22;71254;53.010;6.508;2023-11-22T14:20:22;5.20;99.90
76333;DHT22;71254;53.010;6.508;2023-11-22T14:22:49;5.20;99.90
76333;DHT22;71254;53.010;6.508;2023-11-22T14:25:15;5.20;99.90
76333;DHT22;71254;53.010;6.508;2023-11-22T14:27:46;5.20;99.90
76333;DHT22;71254;53.010;6.508;2023-11-22T14:30:14;5.20;99.90
76333;DHT22;71254;53.010;6.508;2023-11-22T14:32:43;5.20;99.90
76333;DHT22;71254;53.010;6.508;2023-11-22T14:35:09;5.20;99.90
76333;DHT22;71254;53.010;6.508;2023-11-22T14:37:36;5.30;99.90
76333;DHT22;71254;53.010;6.508;2023-11-22T14:40:05;5.20;99.90
76333;DHT22;71254;53.010;6.508;2023-11-22T14:42:41;5.20;99.90
76333;DHT22;71254;53.010;6.508;2023-11-22T14:45:08;5.20;99.90
76333;DHT22;71254;53.010;6.508;2023-11-22T14:47:34;5.20;99.90
76333;DHT22;71254;53.010;6.508;2023-11-22T14:50:05;5.20;99.90
76333;DHT22;71254;53.010;6.508;2023-11-22T14:52:41;5.20;99.90
76333;DHT22;71254;53.010;6.508;2023-11-22T14:55:07;5.20;99.90
76333;DHT22;71254;53.010;6.508;2023-11-22T14:57:34;5.20;99.90
76333;DHT22;71254;53.010;6.508;2023-11-22T15:00:01;5.20;99.90
76333;DHT22;71254;53.010;6.508;2023-11-22T15:02:28;5.10;99.90
76333;DHT22;71254;53.010;6.508;2023-11-22T15:04:53;5.10;99.90
76333;DHT22;71254;53.010;6.508;2023-11-22T15:07:22;5.10;99.90
76333;DHT22;71254;53.010;6.508;2023-11-22T15:09:47;5.10;99.90
76333;DHT22;71254;53.010;6.508;2023-11-22T15:12:13;5.10;99.90
76333;DHT22;71254;53.010;6.508;2023-11-22T15:14:39;5.10;99.90
76333;DHT22;71254;53.010;6.508;2023-11-22T15:17:04;5.10;99.90
76333;DHT22;71254;53.010;6.508;2023-11-22T15:19:31;5.10;99.90
76333;DHT22;71254;53.010;6.508;2023-11-22T15:21:56;5.10;99.90
76333;DHT22;71254;53.010;6.508;2023-11-22T15:24:22;5.10;99.90
76333;DHT22;71254;53.010;6.508;2023-11-22T15:26:48;5.10;99.90
76333;DHT22;71254;53.010;6.508;2023-11-22T15:29:14;5.10;99.90
76333;DHT22;71254;53.010;6.508;2023-11-22T15:31:42;5.10;99.90
76333;DHT22;71254;53.010;6.508;2023-11-22T15:34:09;5.10;99.90
76333;DHT22;71254;53.010;6.508;2023-11-22T15:36:34;5.10;99.90
76333;DHT22;71254;53.010;6.508;2023-11-22T15:39:01;5.10;99.90
76333;DHT22;71254;53.010;6.508;2023-11-22T15:41:27;5.10;99.90
76333;DHT22;71254;53.010;6.508;2023-11-22T15:43:52;5.10;99.90
76333;DHT22;71254;53.010;6.508;2023-11-22T15:46:18;5.10;99.90
76333;DHT22;71254;53.010;6.508;2023-11-22T15:48:44;5.10;99.90
76333;DHT22;71254;53.010;6.508;2023-11-22T15:51:10;5.10;99.90
76333;DHT22;71254;53.010;6.508;2023-11-22T15:53:37;5.10;99.90